Delray Beach, FL

12:51 PM EDT on July 23, 2016 (GMT -0400)
Brads Bedding Plants Inc. | | Change Station

Elev 19 ft 26.47 °N, 80.18 °W | Updated 10 seconds ago

Scattered Clouds
Scattered Clouds
91.6 °F
Feels Like 102 °F
N
0.0
Wind Variable Wind from North
Gusts 0.0 mph

Today
High -- | Low -- °F
--% Chance of Precip.
Yesterday
High -- | Low -- °F
Precip. -- in
Pressure 30.05 in
Visibility 10.0 miles
Clouds Scattered Clouds 2400 ft
Scattered Clouds 25000 ft
Heat Index 102 °F
Dew Point 74.1 °F
Humidity 57%
Rainfall 0.00 in
Snow Depth Not available.
6:41 AM 8:12 PM
Waning Gibbous, 84% visible
METAR KPMP 231553Z 11007KT 10SM SCT024 SCT250 32/23 A3005 RMK AO2 SLP175 T03170228
Pressure 30.05 in
Visibility 10.0 miles
Clouds Scattered Clouds 2400 ft
Scattered Clouds 25000 ft
Heat Index 102 °F
Dew Point 74.1 °F
Humidity 57%
Rainfall 0.00 in
Snow Depth Not available.
6:41 AM 8:12 PM
Waning Gibbous, 84% visible
METAR KPMP 231553Z 11007KT 10SM SCT024 SCT250 32/23 A3005 RMK AO2 SLP175 T03170228

10-Day Weather Forecast

Almanac

Astronomy

Jul. 23, 2016 Rise Set
Actual Time
Civil Twilight
Nautical Twilight
Astronomical Twilight
Moon
Length of Visible Light
Length of Day
Tomorrow will be .
, % of the Moon is Illuminated

Today's Extremes

State Highs State Lows

Community

WunderPhotos

Upload Photos

1,926,861 photos uploaded!

WunderBlog® & News

Nearby

Air Quality

  Air Quality AQ Index Pollutant
Not available.

Snow Depth

Station Depth Elevation

Earthquake Activity

City Distance Mag. Time & Date
Minimum magnitude displayed is 2.5.

Coastal Water Temperatures

Place Temperature

Stations

Nearby Weather Stations

Station Location Temp. Windchill Dew Point Humidity Wind Precip. Elev Updated Type
                   

Watches & Warnings

There are currently no watches in effect.